createdAt,value
2022-12-12T00:01:34.868Z,20.70
2022-12-12T00:04:03.644Z,19.73
2022-12-12T00:06:32.333Z,21.93
2022-12-12T00:09:00.421Z,20.80
2022-12-12T00:11:29.069Z,25.27
2022-12-12T00:13:57.639Z,22.07
2022-12-12T00:16:26.620Z,20.47
2022-12-12T00:18:56.525Z,23.37
2022-12-12T00:21:27.145Z,23.30
2022-12-12T00:23:56.214Z,24.10
2022-12-12T00:26:27.383Z,19.93
2022-12-12T00:28:56.413Z,20.67
2022-12-12T00:31:24.652Z,23.20
2022-12-12T00:33:53.250Z,22.70
2022-12-12T00:36:26.808Z,23.43
2022-12-12T00:38:56.134Z,21.67
2022-12-12T00:41:24.617Z,19.30
2022-12-12T00:43:52.776Z,22.67
2022-12-12T00:46:25.467Z,23.57
2022-12-12T00:48:58.745Z,21.60
2022-12-12T00:51:31.250Z,21.43
2022-12-12T00:54:00.720Z,23.37
2022-12-12T00:56:30.865Z,21.67
2022-12-12T00:58:59.047Z,21.30
2022-12-12T01:01:30.542Z,21.90
2022-12-12T01:03:59.755Z,22.90
2022-12-12T01:06:29.604Z,19.23
2022-12-12T01:08:58.121Z,21.00
2022-12-12T01:11:26.544Z,19.50
2022-12-12T01:13:56.194Z,25.13
2022-12-12T01:16:25.791Z,21.13
2022-12-12T01:18:54.118Z,21.67
2022-12-12T01:21:22.797Z,21.10
2022-12-12T01:23:52.614Z,19.47
2022-12-12T01:26:25.551Z,19.10
2022-12-12T01:28:54.802Z,20.50
2022-12-12T01:31:23.360Z,24.27
2022-12-12T01:33:52.493Z,23.40
2022-12-12T01:36:23.474Z,20.97
2022-12-12T01:38:56.937Z,21.63
2022-12-12T01:41:26.225Z,20.60
2022-12-12T01:43:55.585Z,20.23
2022-12-12T01:46:39.551Z,20.47
2022-12-12T01:49:18.087Z,22.67
2022-12-12T01:51:48.878Z,18.90
2022-12-12T01:54:25.364Z,21.80
2022-12-12T01:56:57.598Z,20.97
2022-12-12T01:59:27.984Z,18.90
2022-12-12T02:01:56.870Z,20.87
2022-12-12T02:04:27.785Z,21.70
2022-12-12T02:06:58.216Z,22.90
2022-12-12T02:09:28.339Z,20.40
2022-12-12T02:11:58.566Z,21.83
2022-12-12T02:14:32.608Z,19.47
2022-12-12T02:17:35.508Z,22.93
2022-12-12T02:20:47.080Z,20.97
2022-12-12T02:23:54.045Z,19.43
2022-12-12T02:27:30.634Z,21.43
2022-12-12T02:30:12.493Z,21.93
2022-12-12T02:33:03.277Z,20.90
2022-12-12T02:35:48.460Z,22.17
2022-12-12T02:38:30.084Z,21.53
2022-12-12T02:41:14.749Z,19.77
2022-12-12T02:43:57.756Z,22.93
2022-12-12T02:46:34.469Z,22.17
2022-12-12T02:49:10.773Z,22.80
2022-12-12T02:51:41.506Z,22.63
2022-12-12T02:54:17.008Z,22.20
2022-12-12T02:56:53.459Z,22.10
2022-12-12T02:59:30.348Z,23.90
2022-12-12T03:02:39.000Z,18.77
2022-12-12T03:05:56.281Z,22.40
2022-12-12T03:08:47.811Z,23.40
2022-12-12T03:11:26.874Z,26.00
2022-12-12T03:14:04.272Z,20.33
2022-12-12T03:16:39.588Z,23.67
2022-12-12T03:19:17.754Z,24.47
2022-12-12T03:21:54.650Z,22.00
2022-12-12T03:24:34.758Z,24.10
2022-12-12T03:27:11.117Z,21.77
2022-12-12T03:29:44.907Z,24.13
2022-12-12T03:32:19.081Z,23.07
2022-12-12T03:34:54.392Z,21.77
2022-12-12T03:37:30.922Z,20.97
2022-12-12T03:40:06.608Z,22.97
2022-12-12T03:42:43.313Z,22.43
2022-12-12T03:45:19.249Z,23.33
2022-12-12T03:47:54.391Z,21.10
2022-12-12T03:50:27.025Z,25.67
2022-12-12T03:53:03.622Z,25.53
2022-12-12T03:55:41.995Z,22.00
2022-12-12T03:58:18.417Z,24.90
2022-12-12T04:00:51.558Z,25.60
2022-12-12T04:03:28.314Z,21.53
2022-12-12T04:06:23.299Z,23.93
2022-12-12T04:09:11.947Z,23.83
2022-12-12T04:12:03.723Z,23.03
2022-12-12T04:15:08.899Z,22.33
2022-12-12T04:17:45.622Z,24.07
2022-12-12T04:20:45.848Z,21.53
2022-12-12T04:23:28.248Z,21.80
2022-12-12T04:26:26.782Z,22.40
2022-12-12T04:29:07.222Z,23.33
2022-12-12T04:31:42.472Z,25.60
2022-12-12T04:34:18.953Z,20.17
2022-12-12T04:36:50.364Z,24.07
2022-12-12T04:39:22.706Z,23.57
2022-12-12T04:41:55.614Z,21.97
2022-12-12T04:44:28.282Z,22.00
2022-12-12T04:46:59.148Z,23.30
2022-12-12T04:49:31.666Z,23.70
2022-12-12T04:52:06.880Z,23.43
2022-12-12T04:54:45.419Z,20.83
2022-12-12T04:57:22.340Z,21.60
2022-12-12T04:59:51.252Z,25.13
2022-12-12T05:02:31.645Z,21.20
2022-12-12T05:05:07.960Z,21.83
2022-12-12T05:07:40.632Z,21.70
2022-12-12T05:10:14.246Z,19.77
2022-12-12T05:12:47.375Z,20.10
2022-12-12T05:15:17.424Z,19.37
2022-12-12T05:17:49.559Z,19.73
2022-12-12T05:20:17.742Z,21.07
2022-12-12T05:22:45.846Z,22.20
2022-12-12T05:25:15.280Z,18.33
2022-12-12T05:27:44.960Z,20.67
2022-12-12T05:30:14.077Z,20.03
2022-12-12T05:32:42.332Z,19.93
2022-12-12T05:35:11.836Z,21.30
2022-12-12T05:37:40.330Z,19.97
2022-12-12T05:40:10.582Z,19.70
2022-12-12T05:42:38.711Z,19.63
2022-12-12T05:45:11.560Z,18.77
2022-12-12T05:47:40.079Z,21.13
2022-12-12T05:50:09.676Z,19.43
2022-12-12T05:52:38.233Z,19.50
2022-12-12T05:55:07.693Z,21.50
2022-12-12T05:57:35.785Z,18.13
2022-12-12T06:00:04.998Z,20.30
2022-12-12T06:02:34.522Z,19.30
2022-12-12T06:05:02.771Z,18.10
2022-12-12T06:07:30.901Z,17.97
2022-12-12T06:09:59.079Z,16.73
2022-12-12T06:12:27.218Z,18.23
2022-12-12T06:14:55.304Z,18.40
2022-12-12T06:17:27.125Z,18.07
2022-12-12T06:19:59.182Z,21.03
2022-12-12T06:22:27.271Z,17.87
2022-12-12T06:24:55.411Z,17.17
2022-12-12T06:27:23.630Z,16.50
2022-12-12T06:29:51.751Z,19.17
2022-12-12T06:32:20.004Z,18.60
2022-12-12T06:34:48.084Z,17.13
2022-12-12T06:37:17.660Z,17.77
2022-12-12T06:39:46.865Z,17.33
2022-12-12T06:42:14.997Z,18.83
2022-12-12T06:44:43.165Z,17.97
2022-12-12T06:47:11.308Z,19.27
2022-12-12T06:49:39.731Z,18.20
2022-12-12T06:52:07.942Z,16.63
2022-12-12T06:54:37.897Z,16.87
2022-12-12T06:57:06.144Z,18.20
2022-12-12T06:59:34.491Z,19.90
2022-12-12T07:02:02.688Z,21.27
2022-12-12T07:04:31.039Z,18.23
2022-12-12T07:06:59.328Z,17.03
2022-12-12T07:09:28.289Z,21.47
2022-12-12T07:11:57.773Z,21.10
2022-12-12T07:14:26.011Z,18.07
2022-12-12T07:16:54.176Z,20.20
2022-12-12T07:19:23.081Z,20.03
2022-12-12T07:21:51.306Z,19.43
2022-12-12T07:24:19.511Z,24.27
2022-12-12T07:26:47.631Z,22.23
2022-12-12T07:29:17.162Z,24.50
2022-12-12T07:31:45.318Z,23.07
2022-12-12T07:34:13.384Z,24.17
2022-12-12T07:36:42.224Z,21.77
2022-12-12T07:39:10.391Z,24.70
2022-12-12T07:41:40.957Z,22.67
2022-12-12T07:44:09.235Z,23.20
2022-12-12T07:46:38.823Z,25.70
2022-12-12T07:49:06.941Z,26.87
2022-12-12T07:51:35.198Z,22.23
2022-12-12T07:54:03.335Z,23.30
2022-12-12T07:56:31.528Z,25.27
2022-12-12T07:58:59.602Z,24.13
2022-12-12T08:01:29.731Z,23.67
2022-12-12T08:03:59.261Z,23.37
2022-12-12T08:06:27.424Z,23.70
2022-12-12T08:08:55.582Z,24.17
2022-12-12T08:11:26.234Z,24.97
2022-12-12T08:13:55.056Z,25.90
2022-12-12T08:16:26.303Z,27.97
2022-12-12T08:18:55.542Z,26.03
2022-12-12T08:21:26.697Z,30.37
2022-12-12T08:23:57.908Z,25.43
2022-12-12T08:26:27.055Z,26.23
2022-12-12T08:28:56.154Z,23.17
2022-12-12T08:31:25.621Z,25.07
2022-12-12T08:33:54.109Z,25.53
2022-12-12T08:36:26.919Z,24.47
2022-12-12T08:38:55.234Z,22.57
2022-12-12T08:41:23.693Z,24.67
2022-12-12T08:43:52.172Z,22.37
2022-12-12T08:46:21.925Z,24.13
2022-12-12T08:48:50.356Z,21.27
2022-12-12T08:51:19.890Z,27.47
2022-12-12T08:53:51.859Z,23.67
2022-12-12T08:56:21.874Z,25.63
2022-12-12T08:58:51.639Z,23.00
2022-12-12T09:01:22.433Z,24.63
2022-12-12T09:03:52.032Z,24.33
2022-12-12T09:06:21.029Z,21.97
2022-12-12T09:08:51.183Z,26.10
2022-12-12T09:11:20.482Z,26.00
2022-12-12T09:13:48.622Z,25.20
2022-12-12T09:16:19.309Z,29.83
2022-12-12T09:18:49.313Z,23.40
2022-12-12T09:21:19.083Z,25.77
2022-12-12T09:23:47.213Z,25.60
2022-12-12T09:26:17.834Z,24.57
2022-12-12T09:28:46.103Z,23.80
2022-12-12T09:31:14.824Z,24.47
2022-12-12T09:33:43.306Z,20.97
2022-12-12T09:36:13.682Z,26.37
2022-12-12T09:38:42.730Z,20.60
2022-12-12T09:41:19.488Z,18.80
2022-12-12T09:43:58.857Z,20.30
2022-12-12T09:46:37.496Z,18.63
2022-12-12T09:49:16.540Z,20.10
2022-12-12T09:51:48.946Z,22.57
2022-12-12T09:54:21.550Z,18.53
2022-12-12T09:57:13.569Z,20.10
2022-12-12T09:59:52.492Z,19.37
2022-12-12T10:02:47.424Z,20.67
2022-12-12T10:05:30.958Z,17.70
2022-12-12T10:08:14.806Z,15.93
2022-12-12T10:10:46.964Z,18.33
2022-12-12T10:13:22.703Z,20.93
2022-12-12T10:15:55.720Z,16.23
2022-12-12T10:18:30.858Z,18.00
2022-12-12T10:21:05.183Z,17.77
2022-12-12T10:23:41.759Z,17.07
2022-12-12T10:26:17.982Z,18.43
2022-12-12T10:28:51.469Z,18.87
2022-12-12T10:31:35.028Z,18.33
2022-12-12T10:34:26.181Z,18.07
2022-12-12T10:37:12.209Z,17.93
2022-12-12T10:39:59.264Z,17.80
2022-12-12T10:42:36.935Z,16.53
2022-12-12T10:45:27.432Z,16.73
2022-12-12T10:47:55.679Z,17.53
2022-12-12T10:50:32.706Z,16.60
2022-12-12T10:53:02.219Z,17.37
2022-12-12T10:55:41.468Z,18.47
2022-12-12T10:58:09.569Z,17.73
2022-12-12T11:00:41.848Z,14.50
2022-12-12T11:03:26.854Z,16.57
2022-12-12T11:05:57.022Z,17.50
2022-12-12T11:08:30.496Z,17.73
2022-12-12T11:11:07.907Z,18.30
2022-12-12T11:13:51.160Z,18.87
2022-12-12T11:16:25.742Z,16.30
2022-12-12T11:19:08.198Z,17.40
2022-12-12T11:21:39.460Z,18.40
2022-12-12T11:24:14.789Z,17.97
2022-12-12T11:26:48.719Z,18.90
2022-12-12T11:29:35.237Z,18.37
2022-12-12T11:32:05.999Z,17.50
2022-12-12T11:34:39.879Z,17.97
2022-12-12T11:37:15.910Z,16.67
2022-12-12T11:39:47.947Z,18.67
2022-12-12T11:42:25.980Z,18.13
2022-12-12T11:45:05.294Z,17.77
2022-12-12T11:47:42.842Z,18.73
2022-12-12T11:50:24.107Z,20.00
2022-12-12T11:52:56.041Z,19.77
2022-12-12T11:55:40.611Z,20.27
2022-12-12T11:58:18.429Z,19.43
2022-12-12T12:00:57.896Z,20.50
2022-12-12T12:03:54.961Z,18.27
2022-12-12T12:06:42.020Z,17.03
2022-12-12T12:09:27.530Z,18.07
2022-12-12T12:12:07.278Z,18.47
2022-12-12T12:15:04.481Z,18.23
2022-12-12T12:17:55.304Z,18.90
2022-12-12T12:20:44.375Z,19.10
2022-12-12T12:23:37.663Z,20.10
2022-12-12T12:26:17.376Z,20.87
2022-12-12T12:29:24.994Z,24.70
2022-12-12T12:32:10.774Z,19.63
2022-12-12T12:34:59.702Z,19.03
2022-12-12T12:37:47.770Z,21.57
2022-12-12T12:40:36.627Z,18.80
2022-12-12T12:43:28.953Z,19.93
2022-12-12T12:46:06.614Z,19.20
2022-12-12T12:48:40.361Z,17.40
2022-12-12T12:51:20.062Z,18.03
2022-12-12T12:54:00.953Z,20.03
2022-12-12T12:56:33.442Z,17.80
2022-12-12T12:59:07.313Z,17.97
2022-12-12T13:01:42.233Z,18.90
2022-12-12T13:04:21.681Z,20.57
2022-12-12T13:06:59.564Z,17.43
2022-12-12T13:09:39.251Z,19.67
2022-12-12T13:12:19.412Z,20.83
2022-12-12T13:14:53.722Z,21.90
2022-12-12T13:17:30.089Z,19.37
2022-12-12T13:19:59.660Z,19.27
2022-12-12T13:22:48.095Z,19.73
2022-12-12T13:25:28.685Z,20.53
2022-12-12T13:28:02.993Z,19.40
2022-12-12T13:30:48.664Z,18.97
2022-12-12T13:33:40.515Z,19.90
2022-12-12T13:36:19.645Z,19.67
2022-12-12T13:38:55.801Z,21.40
2022-12-12T13:41:25.602Z,20.97
2022-12-12T13:43:59.681Z,20.27
2022-12-12T13:46:42.223Z,22.67
2022-12-12T13:49:46.272Z,22.70
2022-12-12T13:52:30.431Z,20.73
2022-12-12T13:55:23.350Z,22.33
2022-12-12T13:58:35.435Z,23.60
2022-12-12T14:01:34.335Z,22.27
2022-12-12T14:04:03.786Z,24.27
2022-12-12T14:06:32.808Z,21.47
2022-12-12T14:09:01.374Z,22.70
2022-12-12T14:11:37.007Z,22.53
2022-12-12T14:14:22.840Z,20.60
2022-12-12T14:16:57.326Z,24.57
2022-12-12T14:19:33.779Z,20.03
2022-12-12T14:22:02.168Z,20.00
2022-12-12T14:25:18.823Z,21.13
2022-12-12T14:28:21.156Z,20.90
2022-12-12T14:31:15.217Z,20.73
2022-12-12T14:34:15.284Z,23.37
2022-12-12T14:37:51.371Z,22.00
2022-12-12T14:40:25.007Z,20.60
2022-12-12T14:43:19.678Z,20.07
2022-12-12T14:46:00.321Z,21.93
2022-12-12T14:48:30.599Z,21.80
2022-12-12T14:51:10.222Z,21.93
2022-12-12T14:53:48.595Z,22.37
2022-12-12T14:56:19.873Z,31.97
2022-12-12T14:58:58.845Z,22.63
2022-12-12T15:01:36.326Z,23.43
2022-12-12T15:04:09.525Z,20.93
2022-12-12T15:06:42.313Z,20.40
2022-12-12T15:09:36.549Z,23.50
2022-12-12T15:12:16.645Z,24.77
2022-12-12T15:14:56.507Z,23.07
2022-12-12T15:17:31.073Z,23.47
2022-12-12T15:20:02.874Z,24.23
2022-12-12T15:22:34.911Z,21.23
2022-12-12T15:25:15.655Z,24.53
2022-12-12T15:27:53.836Z,23.30
2022-12-12T15:30:32.569Z,20.77
2022-12-12T15:33:03.809Z,21.77
2022-12-12T15:35:33.481Z,22.90
2022-12-12T15:38:05.576Z,23.80
2022-12-12T15:40:35.785Z,22.57
2022-12-12T15:43:08.340Z,21.57
2022-12-12T15:45:40.100Z,22.27
2022-12-12T15:48:16.769Z,20.13
2022-12-12T15:50:58.781Z,24.47
2022-12-12T15:53:31.363Z,23.43
2022-12-12T15:56:04.107Z,22.17
2022-12-12T15:58:37.966Z,20.17
2022-12-12T16:01:20.677Z,22.00
2022-12-12T16:04:00.879Z,19.57
2022-12-12T16:06:31.373Z,22.03
2022-12-12T16:09:16.927Z,22.67
2022-12-12T16:11:47.031Z,22.30
2022-12-12T16:14:39.570Z,20.20
2022-12-12T16:17:14.134Z,24.47
2022-12-12T16:19:48.421Z,19.33
2022-12-12T16:22:34.832Z,20.27
2022-12-12T16:25:19.197Z,23.03
2022-12-12T16:27:52.921Z,22.73
2022-12-12T16:30:21.026Z,23.23
2022-12-12T16:32:49.155Z,22.20
2022-12-12T16:35:21.697Z,20.47
2022-12-12T16:37:51.228Z,21.63
2022-12-12T16:40:21.343Z,21.20
2022-12-12T16:42:57.013Z,19.33
2022-12-12T16:45:25.135Z,20.60
2022-12-12T16:47:53.330Z,22.03
2022-12-12T16:50:22.999Z,22.30
2022-12-12T16:52:51.020Z,22.93
2022-12-12T16:55:24.562Z,22.73
2022-12-12T16:57:52.783Z,22.43
2022-12-12T17:00:21.201Z,20.50
2022-12-12T17:02:49.268Z,19.80
2022-12-12T17:05:23.766Z,22.17
2022-12-12T17:07:53.725Z,19.23
2022-12-12T17:10:24.483Z,20.23
2022-12-12T17:12:54.090Z,21.47
2022-12-12T17:15:25.232Z,18.87
2022-12-12T17:17:53.434Z,20.17
2022-12-12T17:20:23.701Z,21.27
2022-12-12T17:22:52.038Z,21.63
2022-12-12T17:25:22.647Z,20.23
2022-12-12T17:27:51.679Z,19.47
2022-12-12T17:30:21.977Z,18.67
2022-12-12T17:35:37.696Z,18.40
2022-12-12T17:38:09.176Z,19.40
2022-12-12T17:40:43.405Z,16.70
2022-12-12T17:43:11.657Z,20.23
2022-12-12T17:45:39.675Z,18.90
2022-12-12T17:48:07.787Z,18.37
2022-12-12T17:50:41.507Z,21.60
2022-12-12T17:53:10.043Z,19.50
2022-12-12T17:55:53.122Z,17.17
2022-12-12T17:58:29.457Z,17.47
2022-12-12T18:00:57.940Z,18.53
2022-12-12T18:03:26.003Z,16.47
2022-12-12T18:05:55.404Z,17.00
2022-12-12T18:08:23.495Z,20.07
2022-12-12T18:10:51.613Z,20.80
2022-12-12T18:13:19.676Z,21.37
2022-12-12T18:15:54.934Z,22.97
2022-12-12T18:18:23.433Z,19.97
2022-12-12T18:20:51.489Z,23.00
2022-12-12T18:23:21.460Z,21.17
2022-12-12T18:25:49.493Z,20.23
2022-12-12T18:28:17.578Z,22.00
2022-12-12T18:30:49.113Z,20.00
2022-12-12T18:33:17.184Z,21.27
2022-12-12T18:35:45.455Z,19.00
2022-12-12T18:38:13.559Z,22.10
2022-12-12T18:40:43.023Z,21.40
2022-12-12T18:43:11.105Z,19.63
2022-12-12T18:45:39.458Z,21.90
2022-12-12T18:48:07.545Z,19.33
2022-12-12T18:50:35.615Z,19.37
2022-12-12T18:53:03.732Z,24.53
2022-12-12T18:55:31.786Z,21.73
2022-12-12T18:58:01.363Z,21.13
2022-12-12T19:00:29.414Z,22.33
2022-12-12T19:02:57.470Z,24.00
2022-12-12T19:05:26.098Z,19.37
2022-12-12T19:07:54.182Z,23.87
2022-12-12T19:10:22.214Z,21.00
2022-12-12T19:12:50.319Z,22.23
2022-12-12T19:15:19.858Z,19.97
2022-12-12T19:17:47.962Z,18.73
2022-12-12T19:20:16.350Z,21.47
2022-12-12T19:22:46.275Z,20.70
2022-12-12T19:25:16.300Z,23.40
2022-12-12T19:27:45.017Z,24.60
2022-12-12T19:30:16.414Z,22.30
2022-12-12T19:32:48.799Z,24.10
2022-12-12T19:35:17.165Z,22.90
2022-12-12T19:37:45.250Z,23.87
2022-12-12T19:40:14.333Z,23.33
2022-12-12T19:42:42.718Z,22.27
2022-12-12T19:45:11.576Z,21.77
2022-12-12T19:47:39.605Z,20.83
2022-12-12T19:50:10.318Z,22.20
2022-12-12T19:52:38.552Z,20.77
2022-12-12T19:55:08.043Z,22.73
2022-12-12T19:57:36.146Z,19.87
2022-12-12T20:00:05.686Z,18.30
2022-12-12T20:02:33.936Z,18.50
2022-12-12T20:05:01.967Z,20.73
2022-12-12T20:07:31.377Z,20.27
2022-12-12T20:09:59.436Z,20.17
2022-12-12T20:12:27.481Z,20.63
2022-12-12T20:14:55.544Z,18.90
2022-12-12T20:17:23.868Z,19.00
2022-12-12T20:19:51.910Z,18.63
2022-12-12T20:22:19.974Z,18.97
2022-12-12T20:24:49.435Z,19.97
2022-12-12T20:27:17.626Z,20.17
2022-12-12T20:29:45.647Z,20.07
2022-12-12T20:32:14.142Z,18.10
2022-12-12T20:34:42.183Z,18.73
2022-12-12T20:37:12.146Z,18.37
2022-12-12T20:39:42.445Z,19.13
2022-12-12T20:42:12.184Z,19.33
2022-12-12T20:44:40.187Z,18.63
2022-12-12T20:47:14.071Z,18.57
2022-12-12T20:49:43.355Z,18.50
2022-12-12T20:52:11.421Z,19.27
2022-12-12T20:54:39.515Z,19.17
2022-12-12T20:57:07.637Z,16.63
2022-12-12T20:59:37.088Z,17.17
2022-12-12T21:02:05.229Z,18.37
2022-12-12T21:04:33.301Z,16.67
2022-12-12T21:07:01.395Z,19.20
2022-12-12T21:09:29.603Z,21.37
2022-12-12T21:11:58.927Z,18.40
2022-12-12T21:14:30.671Z,17.10
2022-12-12T21:17:00.197Z,18.40
2022-12-12T21:19:28.393Z,17.37
2022-12-12T21:21:56.496Z,14.37
2022-12-12T21:24:24.547Z,13.60
2022-12-12T21:26:52.708Z,10.27
2022-12-12T21:29:20.903Z,10.03
2022-12-12T21:31:51.964Z,10.73
2022-12-12T21:34:23.911Z,9.43
2022-12-12T21:36:53.676Z,11.60
2022-12-12T21:39:23.975Z,12.00
2022-12-12T21:41:52.188Z,12.90
2022-12-12T21:44:21.147Z,10.97
2022-12-12T21:46:49.594Z,12.20
2022-12-12T21:49:26.282Z,13.50
2022-12-12T21:51:58.913Z,16.00
2022-12-12T21:54:29.708Z,15.50
2022-12-12T21:56:59.022Z,14.53
2022-12-12T21:59:27.723Z,17.73
2022-12-12T22:01:58.153Z,17.60
2022-12-12T22:04:27.046Z,18.13
2022-12-12T22:06:57.974Z,17.53
2022-12-12T22:09:26.327Z,18.67
2022-12-12T22:12:03.481Z,21.03
2022-12-12T22:14:34.302Z,20.60
2022-12-12T22:17:02.981Z,20.50
2022-12-12T22:19:31.452Z,19.60
2022-12-12T22:22:00.860Z,22.00
2022-12-12T22:24:28.923Z,20.83
2022-12-12T22:26:56.944Z,22.30
2022-12-12T22:29:24.971Z,22.77
2022-12-12T22:31:53.325Z,22.50
2022-12-12T22:34:24.203Z,21.07
2022-12-12T22:36:53.920Z,19.50
2022-12-12T22:39:25.532Z,20.47
2022-12-12T22:41:54.256Z,20.80
2022-12-12T22:44:24.594Z,21.60
2022-12-12T22:46:55.127Z,23.17
2022-12-12T22:49:26.530Z,21.67
2022-12-12T22:51:56.199Z,22.70
2022-12-12T22:54:26.891Z,21.30
2022-12-12T22:56:55.159Z,21.23
2022-12-12T22:59:23.300Z,21.03
2022-12-12T23:01:51.415Z,22.30
2022-12-12T23:04:19.694Z,26.03
2022-12-12T23:06:47.876Z,24.23
2022-12-12T23:09:18.529Z,27.70
2022-12-12T23:11:48.178Z,25.90
2022-12-12T23:14:19.624Z,26.43
2022-12-12T23:16:48.524Z,25.60
2022-12-12T23:19:19.859Z,27.97
2022-12-12T23:21:48.504Z,27.87
2022-12-12T23:24:16.951Z,28.87
2022-12-12T23:26:46.817Z,29.03
2022-12-12T23:29:16.865Z,31.97
2022-12-12T23:31:45.661Z,27.77
2022-12-12T23:34:20.700Z,25.30
2022-12-12T23:36:49.420Z,28.03
2022-12-12T23:39:19.769Z,28.90
2022-12-12T23:41:50.054Z,23.87
2022-12-12T23:44:21.312Z,26.47
2022-12-12T23:46:50.323Z,27.43
2022-12-12T23:49:21.456Z,26.47
2022-12-12T23:51:52.295Z,30.20
2022-12-12T23:54:23.263Z,25.87
2022-12-12T23:56:53.308Z,25.43
2022-12-12T23:59:23.025Z,24.97
